Time;durP1;ratioP1;P1;durP2;ratioP2;P2;SDS_P1;SDS_P2;PMS_P1;PMS_P2;Temp;Humidity;BMP_temperature;BMP_pressure;BME280_temperature;BME280_humidity;BME280_pressure;Samples;Min_cycle;Max_cycle;Signal;HPM_P1;HPM_P2
2022/04/03 00:01:37;;;;;;;6.15;3.25;;;;;;;-1.57;88.27;102317.66;5014648;28;20259;-41
2022/04/03 00:04:02;;;;;;;7.13;3.10;;;;;;;-1.57;88.55;102322.91;5015188;28;20029;-41
2022/04/03 00:06:27;;;;;;;8.95;3.25;;;;;;;-1.59;88.55;102316.00;5015138;28;20404;-42
2022/04/03 00:08:53;;;;;;;8.13;3.58;;;;;;;-1.57;88.73;102322.06;5015368;28;20041;-41
2022/04/03 00:11:20;;;;;;;5.78;3.17;;;;;;;-1.60;89.48;102317.75;5013242;28;20443;-41
2022/04/03 00:13:45;;;;;;;7.85;3.10;;;;;;;-1.61;89.29;102310.81;5016593;28;20500;-42
2022/04/03 00:16:11;;;;;;;8.52;3.50;;;;;;;-1.60;89.94;102320.38;5013962;28;20113;-41
2022/04/03 00:18:37;;;;;;;7.03;3.22;;;;;;;-1.60;89.66;102311.66;5014181;28;20491;-42
2022/04/03 00:21:02;;;;;;;6.75;3.22;;;;;;;-1.62;90.34;102316.94;5014750;28;20369;-41
2022/04/03 00:23:28;;;;;;;11.60;3.58;;;;;;;-1.64;90.65;102316.16;5013914;28;20033;-42
2022/04/03 00:25:53;;;;;;;7.63;3.17;;;;;;;-1.70;90.51;102314.56;5012868;28;20403;-44
2022/04/03 00:28:20;;;;;;;6.55;3.28;;;;;;;-1.74;91.29;102320.78;5010674;28;20103;-42
2022/04/03 00:30:45;;;;;;;5.75;3.33;;;;;;;-1.79;91.50;102321.84;4995034;28;20106;-42
2022/04/03 00:33:11;;;;;;;4.60;3.08;;;;;;;-1.83;92.49;102323.69;4999569;28;20555;-42
2022/04/03 00:35:37;;;;;;;6.70;3.17;;;;;;;-1.89;92.93;102321.25;5015896;28;20026;-42
2022/04/03 00:38:03;;;;;;;5.25;3.10;;;;;;;-1.96;93.40;102330.19;5013577;28;20618;-43
2022/04/03 00:40:28;;;;;;;7.25;3.25;;;;;;;-1.99;94.09;102325.88;5014431;28;20025;-42
2022/04/03 00:42:53;;;;;;;7.72;3.63;;;;;;;-2.06;94.28;102313.88;5013703;28;20026;-41
2022/04/03 00:45:19;;;;;;;7.40;3.22;;;;;;;-2.05;94.70;102323.44;5014385;28;20660;-43
2022/04/03 00:47:48;;;;;;;6.70;3.63;;;;;;;-2.02;95.05;102323.38;5015276;28;20111;-42
2022/04/03 00:50:14;;;;;;;8.18;3.67;;;;;;;-2.00;95.46;102325.91;5014354;28;20131;-40
2022/04/03 00:52:39;;;;;;;7.97;3.70;;;;;;;-2.00;95.26;102321.56;5015101;28;20056;-46
2022/04/03 00:55:05;;;;;;;9.48;3.85;;;;;;;-1.99;96.00;102320.63;5013175;28;20317;-41
2022/04/03 00:57:31;;;;;;;6.90;3.28;;;;;;;-2.01;95.82;102318.97;5014125;28;20033;-42
2022/04/03 00:59:57;;;;;;;7.80;3.58;;;;;;;-2.03;95.88;102324.25;5011693;28;20111;-40
2022/04/03 01:02:23;;;;;;;8.82;3.90;;;;;;;-2.10;96.31;102309.63;5013275;28;20500;-41
2022/04/03 01:04:48;;;;;;;6.45;3.90;;;;;;;-2.10;95.63;102312.25;5014604;28;20036;-43
2022/04/03 01:07:14;;;;;;;13.40;3.92;;;;;;;-2.11;95.81;102319.22;5013705;28;20433;-43
2022/04/03 01:09:40;;;;;;;8.95;4.28;;;;;;;-2.13;96.15;102320.19;5013666;28;20018;-41
2022/04/03 01:12:06;;;;;;;7.88;3.83;;;;;;;-2.17;97.01;102313.28;5013367;28;20478;-42
2022/04/03 01:14:33;;;;;;;7.60;3.92;;;;;;;-2.21;97.01;102316.91;5013675;28;20037;-44
2022/04/03 01:16:59;;;;;;;10.57;4.43;;;;;;;-2.22;97.92;102309.94;5011817;28;20125;-41
2022/04/03 01:19:24;;;;;;;8.55;4.65;;;;;;;-2.22;98.63;102316.06;5013161;28;20021;-44
2022/04/03 01:21:50;;;;;;;11.93;4.70;;;;;;;-2.23;98.53;102314.34;5013608;28;20114;-41
2022/04/03 01:24:18;;;;;;;11.02;4.20;;;;;;;-2.25;99.14;102314.38;5012837;28;20074;-44
2022/04/03 01:26:43;;;;;;;10.60;4.47;;;;;;;-2.27;98.82;102310.94;5003439;28;20034;-42
2022/04/03 01:29:09;;;;;;;8.98;4.47;;;;;;;-2.30;98.96;102308.41;4994456;28;20787;-42
2022/04/03 01:31:34;;;;;;;11.45;4.97;;;;;;;-2.29;99.67;102312.75;4992641;28;20183;-42
2022/04/03 01:33:59;;;;;;;8.23;4.68;;;;;;;-2.28;99.59;102308.38;5004201;28;20032;-43
2022/04/03 01:36:25;;;;;;;11.95;4.60;;;;;;;-2.29;99.90;102312.75;5013118;28;20275;-42
2022/04/03 01:38:50;;;;;;;8.95;4.63;;;;;;;-2.32;100.00;102307.59;5013519;28;20024;-42
2022/04/03 01:41:15;;;;;;;8.93;4.88;;;;;;;-2.31;100.00;102309.31;5013010;28;20100;-46
2022/04/03 01:43:40;;;;;;;10.88;4.70;;;;;;;-2.31;100.00;102306.72;5014667;28;20033;-44
2022/04/03 01:46:06;;;;;;;9.00;4.43;;;;;;;-2.33;100.00;102303.25;5014280;28;20495;-45
2022/04/03 01:48:32;;;;;;;8.45;4.80;;;;;;;-2.33;100.00;102300.63;5016441;28;20611;-46
2022/04/03 01:50:57;;;;;;;8.73;4.35;;;;;;;-2.33;100.00;102302.41;5015114;28;20100;-41
2022/04/03 01:53:24;;;;;;;14.55;4.68;;;;;;;-2.36;100.00;102298.13;5013263;28;20028;-41
2022/04/03 01:56:00;;;;;;;9.63;4.60;;;;;;;-2.37;100.00;102298.16;5012298;28;20064;-41
2022/04/03 01:58:25;;;;;;;12.52;5.00;;;;;;;-2.40;100.00;102296.47;5012849;28;20033;-42
2022/04/03 02:00:50;;;;;;;9.25;4.82;;;;;;;-2.42;100.00;102293.06;5002952;28;20098;-41
2022/04/03 02:03:17;;;;;;;8.98;4.50;;;;;;;-2.44;100.00;102289.63;4993593;28;20068;-41
2022/04/03 02:05:43;;;;;;;12.75;4.22;;;;;;;-2.45;100.00;102293.13;4993566;28;20468;-43
2022/04/03 02:08:08;;;;;;;9.35;4.88;;;;;;;-2.47;100.00;102298.41;4993718;28;20243;-43
2022/04/03 02:10:33;;;;;;;10.50;4.63;;;;;;;-2.51;100.00;102285.44;5011851;28;20091;-41
2022/04/03 02:12:58;;;;;;;7.25;4.32;;;;;;;-2.51;100.00;102299.41;5012330;28;20219;-41
2022/04/03 02:15:24;;;;;;;8.98;4.05;;;;;;;-2.54;100.00;102304.69;5011767;28;20030;-42
2022/04/03 02:17:49;;;;;;;7.53;4.18;;;;;;;-2.56;100.00;102301.28;5012271;28;20028;-41
2022/04/03 02:20:15;;;;;;;7.40;4.07;;;;;;;-2.57;100.00;102298.69;5013384;28;20033;-40
2022/04/03 02:22:40;;;;;;;7.65;3.85;;;;;;;-2.58;100.00;102299.59;5012857;28;20036;-42
2022/04/03 02:25:09;;;;;;;8.45;4.15;;;;;;;-2.60;100.00;102296.16;5011665;28;20126;-41
2022/04/03 02:27:35;;;;;;;11.73;3.97;;;;;;;-2.62;100.00;102286.59;5010876;28;20091;-41
2022/04/03 02:30:01;;;;;;;8.18;4.30;;;;;;;-2.63;100.00;102299.72;5011541;28;20250;-43
2022/04/03 02:32:26;;;;;;;8.95;4.15;;;;;;;-2.63;100.00;102294.50;5012860;28;20022;-42
2022/04/03 02:34:52;;;;;;;7.55;4.00;;;;;;;-2.65;100.00;102293.66;5011073;28;20114;-41
2022/04/03 02:37:18;;;;;;;8.57;4.50;;;;;;;-2.69;100.00;102298.09;5012367;28;20429;-44
2022/04/03 02:39:44;;;;;;;7.00;4.10;;;;;;;-2.75;100.00;102298.28;5027691;28;20408;-40
2022/04/03 02:42:09;;;;;;;10.35;4.18;;;;;;;-2.78;100.00;102295.75;5012702;28;20099;-42
2022/04/03 02:44:34;;;;;;;9.90;4.22;;;;;;;-2.78;100.00;102293.13;5013012;28;20373;-42
2022/04/03 02:47:00;;;;;;;9.38;4.22;;;;;;;-2.82;100.00;102286.25;5009335;28;20298;-42
2022/04/03 02:49:25;;;;;;;8.60;4.05;;;;;;;-2.81;100.00;102298.44;5013346;28;20553;-43
2022/04/03 02:51:51;;;;;;;9.68;4.50;;;;;;;-2.82;100.00;102300.19;5012196;28;20025;-43
2022/04/03 02:54:16;;;;;;;13.43;4.18;;;;;;;-2.82;100.00;102294.97;5010782;28;20036;-44
2022/04/03 02:56:41;;;;;;;8.02;3.85;;;;;;;-2.83;100.00;102300.22;5012197;28;20540;-42
2022/04/03 02:59:07;;;;;;;9.43;4.07;;;;;;;-2.85;100.00;102295.03;5012674;28;20056;-43
2022/04/03 03:01:32;;;;;;;9.07;4.47;;;;;;;-2.84;100.00;102296.75;5011705;28;20037;-41
2022/04/03 03:03:57;;;;;;;7.00;4.18;;;;;;;-2.85;100.00;102304.63;5012415;28;20127;-42
2022/04/03 03:06:23;;;;;;;10.23;4.18;;;;;;;-2.87;100.00;102303.81;5012211;28;20109;-41
2022/04/03 03:08:48;;;;;;;6.25;3.92;;;;;;;-2.90;100.00;102304.75;5012879;28;20400;-42
2022/04/03 03:11:14;;;;;;;9.48;4.32;;;;;;;-2.91;100.00;102302.19;5011846;28;20554;-41
2022/04/03 03:13:40;;;;;;;8.98;4.38;;;;;;;-2.93;100.00;102301.38;5011417;28;20100;-43
2022/04/03 03:16:05;;;;;;;10.52;4.32;;;;;;;-2.91;100.00;102304.78;5010552;28;20150;-44
2022/04/03 03:18:30;;;;;;;8.82;4.03;;;;;;;-2.93;100.00;102299.59;5012411;28;20079;-41
2022/04/03 03:20:56;;;;;;;9.20;3.92;;;;;;;-2.95;100.00;102305.75;5011998;28;20489;-43
2022/04/03 03:23:21;;;;;;;8.35;4.00;;;;;;;-2.96;100.00;102304.03;5012385;28;20160;-41
2022/04/03 03:25:46;;;;;;;7.57;4.30;;;;;;;-2.99;100.00;102304.97;5011267;28;20025;-41
2022/04/03 03:28:13;;;;;;;8.88;4.25;;;;;;;-2.99;100.00;102310.19;5012390;28;20494;-41
2022/04/03 03:30:38;;;;;;;11.70;4.38;;;;;;;-3.04;100.00;102302.50;5011477;28;20055;-43
2022/04/03 03:33:05;;;;;;;7.43;4.47;;;;;;;-3.02;100.00;102311.16;5012296;28;20021;-43
2022/04/03 03:35:31;;;;;;;10.90;4.07;;;;;;;-3.04;100.00;102301.59;5011199;28;20741;-42
2022/04/03 03:37:56;;;;;;;8.25;4.20;;;;;;;-3.04;100.00;102310.31;5012215;28;20052;-43
2022/04/03 03:40:21;;;;;;;8.52;4.45;;;;;;;-3.06;100.00;102312.09;5012606;28;20037;-42
2022/04/03 03:42:46;;;;;;;8.75;4.18;;;;;;;-3.06;100.00;102304.25;5015877;28;20500;-41
2022/04/03 03:45:14;;;;;;;7.72;4.28;;;;;;;-3.08;100.00;102311.28;5015158;28;20431;-42
2022/04/03 03:47:43;;;;;;;9.20;4.13;;;;;;;-3.08;100.00;102310.44;5015348;28;20653;-42
2022/04/03 03:50:08;;;;;;;10.43;4.40;;;;;;;-3.09;100.00;102300.84;5015989;28;20038;-41
2022/04/03 03:52:34;;;;;;;10.38;4.22;;;;;;;-3.11;100.00;102305.28;5015078;28;20048;-40
2022/04/03 03:54:59;;;;;;;10.30;4.50;;;;;;;-3.12;100.00;102304.41;5014078;28;20056;-43
2022/04/03 03:57:25;;;;;;;10.88;4.68;;;;;;;-3.12;100.00;102311.38;5015541;28;20028;-42
2022/04/03 03:59:51;;;;;;;8.65;4.57;;;;;;;-3.13;100.00;102307.06;5014597;28;20116;-42
2022/04/03 04:02:17;;;;;;;9.60;4.35;;;;;;;-3.12;100.00;102306.16;5015181;28;20026;-46
2022/04/03 04:04:42;;;;;;;10.98;4.80;;;;;;;-3.11;100.00;102306.13;5015715;28;20128;-41
2022/04/03 04:07:07;;;;;;;8.35;4.70;;;;;;;-3.11;100.00;102306.13;5015400;28;20503;-43
2022/04/03 04:09:33;;;;;;;11.27;4.38;;;;;;;-3.15;100.00;102301.88;5014532;28;20113;-42
2022/04/03 04:11:58;;;;;;;8.95;4.60;;;;;;;-3.15;100.00;102303.63;5014740;28;20022;-44
2022/04/03 04:14:23;;;;;;;11.48;4.50;;;;;;;-3.17;100.00;102308.03;5015314;28;20480;-42
2022/04/03 04:16:48;;;;;;;8.38;4.43;;;;;;;-3.20;100.00;102314.19;5014166;28;20029;-42
2022/04/03 04:19:15;;;;;;;14.50;4.68;;;;;;;-3.22;100.00;102310.75;5015256;28;20116;-40
2022/04/03 04:21:40;;;;;;;11.07;4.88;;;;;;;-3.29;100.00;102307.44;5015394;28;20040;-42
2022/04/03 04:24:06;;;;;;;10.88;5.07;;;;;;;-3.28;100.00;102318.72;5014431;28;20029;-43
2022/04/03 04:26:31;;;;;;;14.27;5.10;;;;;;;-3.30;100.00;102312.69;5014802;28;20726;-40
2022/04/03 04:28:56;;;;;;;10.70;4.82;;;;;;;-3.33;100.00;102318.84;5015144;28;20086;-41
2022/04/03 04:31:22;;;;;;;14.05;4.80;;;;;;;-3.34;100.00;102324.09;5013476;28;20040;-41
2022/04/03 04:33:47;;;;;;;9.57;5.10;;;;;;;-3.36;100.00;102318.94;5014251;28;20489;-41
2022/04/03 04:36:13;;;;;;;12.35;5.28;;;;;;;-3.42;100.00;102304.22;5030853;28;20017;-46
2022/04/03 04:38:38;;;;;;;9.90;5.25;;;;;;;-3.49;100.00;102307.03;5015861;28;20124;-49
2022/04/03 04:41:04;;;;;;;9.25;4.90;;;;;;;-3.52;100.00;102320.16;5015004;28;20056;-48
2022/04/03 04:43:30;;;;;;;12.00;5.13;;;;;;;-3.50;100.00;102320.97;5015642;28;20079;-44
2022/04/03 04:45:55;;;;;;;12.63;5.30;;;;;;;-3.49;100.00;102320.09;5015161;28;20436;-45
2022/04/03 04:48:20;;;;;;;11.65;5.30;;;;;;;-3.46;100.00;102322.59;5015954;28;20103;-49
2022/04/03 04:50:46;;;;;;;10.70;5.88;;;;;;;-3.48;100.00;102317.44;5015964;28;20018;-47
2022/04/03 04:53:11;;;;;;;12.05;5.50;;;;;;;-3.44;100.00;102323.47;5013876;28;20036;-45
2022/04/03 04:55:36;;;;;;;12.95;5.95;;;;;;;-3.46;100.00;102318.25;5014228;28;20059;-48
2022/04/03 04:58:02;;;;;;;13.10;5.97;;;;;;;-3.40;100.00;102331.16;5030106;28;20057;-47
2022/04/03 05:00:28;;;;;;;13.70;5.75;;;;;;;-3.41;100.00;102328.59;5014781;28;20512;-48
2022/04/03 05:02:54;;;;;;;15.82;5.90;;;;;;;-3.41;100.00;102336.44;5015874;28;20034;-44
2022/04/03 05:05:22;;;;;;;12.73;5.93;;;;;;;-3.39;100.00;102343.34;5014934;28;20395;-45
2022/04/03 05:07:53;;;;;;;16.80;6.20;;;;;;;-3.39;100.00;102338.13;5015582;28;20063;-48
2022/04/03 05:10:19;;;;;;;15.52;6.32;;;;;;;-3.36;100.00;102342.44;5013046;28;20033;-47
2022/04/03 05:12:45;;;;;;;13.05;5.82;;;;;;;-3.34;100.00;102338.03;5015536;28;20026;-48
2022/04/03 05:15:11;;;;;;;24.15;7.07;;;;;;;-3.31;100.00;102342.31;5014271;28;20061;-48
2022/04/03 05:17:39;;;;;;;17.40;7.65;;;;;;;-3.28;100.00;102347.47;5015392;28;20436;-49
2022/04/03 05:20:05;;;;;;;20.58;7.90;;;;;;;-3.24;100.00;102351.72;5014846;28;20120;-47
2022/04/03 05:22:31;;;;;;;17.70;7.57;;;;;;;-3.18;100.00;102346.38;5015154;28;20040;-46
2022/04/03 05:24:56;;;;;;;16.67;7.30;;;;;;;-3.14;100.00;102352.38;5013620;28;20021;-48
2022/04/03 05:27:22;;;;;;;17.52;7.53;;;;;;;-3.09;100.00;102348.78;5014976;28;20035;-45
2022/04/03 05:29:48;;;;;;;17.70;6.78;;;;;;;-3.01;100.00;102345.97;5013671;28;20201;-47
2022/04/03 05:32:14;;;;;;;14.50;6.68;;;;;;;-2.94;100.00;102349.28;5012966;28;20439;-47
2022/04/03 05:34:39;;;;;;;15.38;6.47;;;;;;;-2.87;100.00;102353.47;5015027;28;20112;-48
2022/04/03 05:37:05;;;;;;;13.38;7.13;;;;;;;-2.81;100.00;102353.34;5014426;28;20050;-46
2022/04/03 05:39:30;;;;;;;17.42;7.80;;;;;;;-2.75;100.00;102352.31;5014424;28;20022;-45
2022/04/03 05:41:56;;;;;;;21.02;9.35;;;;;;;-2.71;100.00;102349.59;5013768;28;20033;-48
2022/04/03 05:44:22;;;;;;;27.13;9.65;;;;;;;-2.62;100.00;102353.72;5030278;28;20024;-46
2022/04/03 05:46:49;;;;;;;27.48;9.73;;;;;;;-2.58;100.00;102350.16;5014049;28;20488;-48
2022/04/03 05:49:15;;;;;;;20.83;8.80;;;;;;;-2.48;100.00;102353.38;5014774;28;20022;-45
2022/04/03 05:51:41;;;;;;;24.95;9.75;;;;;;;-2.41;100.00;102354.97;5014269;28;20102;-49
2022/04/03 05:54:06;;;;;;;19.25;8.40;;;;;;;-2.31;100.00;102361.66;5014244;28;20055;-48
2022/04/03 05:56:32;;;;;;;21.52;9.32;;;;;;;-2.23;100.00;102365.81;5012399;28;20651;-48
2022/04/03 05:58:57;;;;;;;18.70;9.23;;;;;;;-2.16;100.00;102355.13;5014389;28;20103;-49
2022/04/03 06:01:23;;;;;;;17.40;8.55;;;;;;;-2.07;100.00;102367.09;5013140;28;20688;-46
2022/04/03 06:03:49;;;;;;;20.58;8.63;;;;;;;-2.01;100.00;102372.19;5014711;28;20132;-46
2022/04/03 06:06:14;;;;;;;17.20;8.60;;;;;;;-1.94;100.00;102376.34;5013953;28;20025;-44
2022/04/03 06:08:39;;;;;;;16.50;8.68;;;;;;;-1.89;100.00;102365.75;5014925;28;20040;-48
2022/04/03 06:11:04;;;;;;;20.60;8.77;;;;;;;-1.83;100.00;102375.19;5012604;28;20022;-44
2022/04/03 06:13:30;;;;;;;19.67;8.68;;;;;;;-1.81;100.00;102376.03;5013877;28;20033;-45
2022/04/03 06:15:55;;;;;;;19.20;8.23;;;;;;;-1.80;100.00;102367.25;5013394;28;20021;-45
2022/04/03 06:18:21;;;;;;;17.85;8.65;;;;;;;-1.80;100.00;102373.38;5014958;28;20040;-46
2022/04/03 06:20:47;;;;;;;24.90;9.57;;;;;;;-1.82;100.00;102375.16;5014513;28;20074;-46
2022/04/03 06:23:18;;;;;;;17.45;8.60;;;;;;;-1.86;100.00;102364.81;5013812;28;20123;-49
2022/04/03 06:25:46;;;;;;;20.90;8.77;;;;;;;-1.87;100.00;102366.56;5012134;28;20132;-50
2022/04/03 06:28:12;;;;;;;18.67;7.97;;;;;;;-1.92;100.00;102365.84;5014018;28;20040;-46
2022/04/03 06:30:38;;;;;;;15.48;7.90;;;;;;;-1.91;100.00;102372.81;5012328;28;20033;-49
2022/04/03 06:33:04;;;;;;;16.23;7.55;;;;;;;-1.92;100.00;102384.16;5014528;28;20029;-46
2022/04/03 06:35:29;;;;;;;15.13;7.65;;;;;;;-1.93;100.00;102367.59;5013828;28;20508;-48
2022/04/03 06:37:55;;;;;;;15.68;7.63;;;;;;;-1.94;100.00;102371.09;5014203;28;20037;-46
2022/04/03 06:40:20;;;;;;;17.40;7.82;;;;;;;-1.96;100.00;102367.69;5013133;28;20033;-47
2022/04/03 06:42:47;;;;;;;14.50;8.02;;;;;;;-1.97;100.00;102371.22;5012938;28;20030;-43
2022/04/03 06:45:14;;;;;;;15.52;7.30;;;;;;;-1.94;100.00;102371.09;5013186;28;20040;-46
2022/04/03 06:47:39;;;;;;;15.85;7.13;;;;;;;-1.83;100.00;102373.44;5013736;28;20057;-47
2022/04/03 06:50:05;;;;;;;16.77;8.10;;;;;;;-1.75;100.00;102379.34;5012870;28;20139;-45
2022/04/03 06:52:30;;;;;;;16.15;7.68;;;;;;;-1.65;100.00;102379.91;5013881;28;20056;-48
2022/04/03 06:54:55;;;;;;;13.75;7.35;;;;;;;-1.60;100.00;102380.63;4995999;28;20074;-46
2022/04/03 06:57:21;;;;;;;17.42;7.63;;;;;;;-1.47;100.00;102378.53;4993528;28;20017;-45
2022/04/03 06:59:46;;;;;;;14.38;7.63;;;;;;;-1.36;100.00;102372.94;4994090;28;20469;-46
2022/04/03 07:02:12;;;;;;;14.68;8.02;;;;;;;-1.21;100.00;102372.47;4993787;28;20193;-47
2022/04/03 07:04:37;;;;;;;13.63;7.57;;;;;;;-1.06;100.00;102367.69;4994713;28;20026;-47
2022/04/03 07:07:03;;;;;;;13.68;7.75;;;;;;;-0.92;100.00;102375.94;4993037;28;20316;-49
2022/04/03 07:09:29;;;;;;;13.27;8.00;;;;;;;-0.82;100.00;102374.75;5008636;28;20488;-50
2022/04/03 07:11:54;;;;;;;14.43;7.93;;;;;;;-0.65;100.00;102371.56;4996453;28;20234;-48
2022/04/03 07:14:20;;;;;;;12.68;8.13;;;;;;;-0.49;100.00;102374.56;5013965;28;20025;-47
2022/04/03 07:16:45;;;;;;;19.05;9.13;;;;;;;-0.35;100.00;102371.47;5016084;28;20276;-50
2022/04/03 07:19:11;;;;;;;14.60;9.18;;;;;;;-0.19;100.00;102371.78;5017485;28;20400;-49
2022/04/03 07:21:36;;;;;;;20.98;8.65;;;;;;;-0.02;100.00;102374.69;5017028;28;20111;-49
2022/04/03 07:24:02;;;;;;;13.90;8.93;;;;;;;0.15;100.00;102374.06;5014378;28;20032;-50
2022/04/03 07:26:27;;;;;;;16.15;8.27;;;;;;;0.32;100.00;102381.34;5007298;28;20449;-47
2022/04/03 07:28:53;;;;;;;17.38;8.88;;;;;;;0.52;100.00;102390.22;4996835;28;20330;-45
2022/04/03 07:31:18;;;;;;;13.63;8.40;;;;;;;0.72;100.00;102390.31;5003502;28;20546;-45
2022/04/03 07:33:43;;;;;;;15.93;7.90;;;;;;;0.89;100.00;102380.94;4997749;28;20037;-47
2022/04/03 07:36:08;;;;;;;17.38;7.78;;;;;;;1.11;100.00;102389.69;5001818;28;20033;-47
2022/04/03 07:38:34;;;;;;;12.10;7.38;;;;;;;1.29;100.00;102387.22;5001055;28;20041;-44
2022/04/03 07:40:59;;;;;;;12.07;7.28;;;;;;;1.45;100.00;102388.28;4996400;28;20079;-45
2022/04/03 07:43:25;;;;;;;11.25;7.03;;;;;;;1.67;100.00;102397.94;4999046;28;20026;-45
2022/04/03 07:45:52;;;;;;;13.43;6.70;;;;;;;1.86;100.00;102392.72;4996272;28;20045;-45
2022/04/03 07:48:17;;;;;;;9.95;6.20;;;;;;;2.04;100.00;102393.72;4998919;28;20025;-45
2022/04/03 07:50:43;;;;;;;8.90;5.40;;;;;;;2.20;100.00;102389.47;5001234;28;20025;-46
2022/04/03 07:53:08;;;;;;;16.55;6.53;;;;;;;2.36;100.00;102394.03;5001358;28;20535;-45
2022/04/03 07:55:33;;;;;;;9.02;5.35;;;;;;;2.50;100.00;102401.34;4996122;28;20453;-45
2022/04/03 07:57:59;;;;;;;8.15;4.70;;;;;;;2.69;100.00;102390.78;5000518;28;20100;-47
2022/04/03 08:00:24;;;;;;;12.20;4.72;;;;;;;2.84;99.38;102392.72;5005876;28;20441;-46
2022/04/03 08:02:49;;;;;;;5.78;3.40;;;;;;;2.96;95.32;102393.91;4999641;28;20084;-47
2022/04/03 08:05:14;;;;;;;5.32;3.00;;;;;;;3.06;94.74;102397.81;5003743;28;20421;-45
2022/04/03 08:07:45;;;;;;;8.40;2.80;;;;;;;3.15;91.10;102401.78;5010817;28;20107;-47
2022/04/03 08:10:15;;;;;;;6.43;3.00;;;;;;;3.28;91.83;102402.06;4997720;28;20037;-45
2022/04/03 08:12:42;;;;;;;7.10;3.00;;;;;;;3.42;91.04;102404.03;5001440;28;20028;-44
2022/04/03 08:15:10;;;;;;;6.38;2.60;;;;;;;3.58;89.65;102396.16;4997571;28;20180;-46
2022/04/03 08:17:38;;;;;;;3.63;2.20;;;;;;;3.67;87.41;102395.72;5010380;28;20030;-47
2022/04/03 08:20:05;;;;;;;5.45;2.60;;;;;;;3.81;88.30;102392.38;5000129;28;20034;-45
2022/04/03 08:22:31;;;;;;;6.85;3.05;;;;;;;3.92;86.46;102392.66;5001805;28;20050;-44
2022/04/03 08:24:56;;;;;;;9.27;2.13;;;;;;;3.94;84.69;102406.66;4997725;28;20104;-46
2022/04/03 08:27:22;;;;;;;3.75;2.20;;;;;;;3.97;85.05;102395.06;5000714;28;20491;-45
2022/04/03 08:29:48;;;;;;;9.68;2.40;;;;;;;4.05;85.38;102401.66;4998827;28;20495;-45
2022/04/03 08:32:13;;;;;;;8.48;2.40;;;;;;;4.11;84.61;102393.41;4997733;28;20025;-44
2022/04/03 08:34:39;;;;;;;7.75;2.53;;;;;;;4.24;84.62;102404.22;4999193;28;20049;-45
2022/04/03 08:37:05;;;;;;;5.53;2.53;;;;;;;4.36;85.55;102412.41;5010215;28;20053;-48
2022/04/03 08:39:30;;;;;;;3.65;2.28;;;;;;;4.42;83.33;102406.81;5009869;28;20225;-45
2022/04/03 08:41:56;;;;;;;5.57;2.30;;;;;;;4.45;82.27;102404.84;5006260;28;20109;-49
2022/04/03 08:44:22;;;;;;;8.82;2.30;;;;;;;4.59;83.33;102405.88;5007521;28;20324;-46
2022/04/03 08:46:49;;;;;;;4.07;2.10;;;;;;;4.78;82.06;102403.91;5008116;28;20032;-47
2022/04/03 08:49:16;;;;;;;8.25;2.40;;;;;;;4.96;80.36;102409.16;5002442;28;20037;-46
2022/04/03 08:51:43;;;;;;;6.45;2.00;;;;;;;5.07;80.56;102413.84;5002164;28;20025;-44
2022/04/03 08:54:09;;;;;;;3.10;2.33;;;;;;;5.17;78.35;102407.91;5000241;28;20033;-45
2022/04/03 08:56:34;;;;;;;4.20;2.20;;;;;;;5.09;78.22;102404.88;4998539;28;20048;-45
2022/04/03 08:59:00;;;;;;;7.60;2.28;;;;;;;5.04;79.56;102401.59;5003292;28;20034;-44
2022/04/03 09:01:25;;;;;;;5.32;2.08;;;;;;;5.08;79.17;102415.56;5005280;28;20047;-45
2022/04/03 09:03:51;;;;;;;7.90;2.90;;;;;;;5.07;78.55;102411.19;5001617;28;20029;-45
2022/04/03 09:06:18;;;;;;;10.45;2.85;;;;;;;5.07;78.36;102409.38;4995143;28;20045;-46
2022/04/03 09:08:44;;;;;;;6.22;2.30;;;;;;;5.14;79.15;102409.91;4995781;28;20373;-46
2022/04/03 09:11:10;;;;;;;3.70;2.30;;;;;;;5.08;75.57;102413.75;4995998;28;20101;-46
2022/04/03 09:13:37;;;;;;;7.45;2.10;;;;;;;4.89;76.37;102408.66;4996012;28;20433;-45
2022/04/03 09:16:03;;;;;;;5.38;2.35;;;;;;;4.84;76.41;102400.94;5012168;28;20036;-45
2022/04/03 09:18:44;;;;;;;7.40;2.30;;;;;;;5.07;77.41;102397.94;5006232;28;20107;-45
2022/04/03 09:21:25;;;;;;;3.95;2.10;;;;;;;5.39;77.24;102404.06;5012012;28;20025;-44
2022/04/03 09:24:08;;;;;;;4.43;2.20;;;;;;;5.70;75.00;102405.78;5012920;28;20373;-51
2022/04/03 09:26:35;;;;;;;4.82;1.88;;;;;;;5.86;70.95;102400.41;5014300;28;20056;-45
2022/04/03 09:29:17;;;;;;;2.13;1.40;;;;;;;5.92;68.79;102399.16;5014889;28;20025;-46
2022/04/03 09:31:45;;;;;;;3.10;1.27;;;;;;;6.17;68.78;102409.19;5014020;28;20104;-47
2022/04/03 09:34:19;;;;;;;5.13;1.60;;;;;;;6.30;64.16;102398.69;5003233;28;20021;-46
2022/04/03 09:36:55;;;;;;;5.30;1.40;;;;;;;6.27;65.93;102394.41;4994838;28;20476;-45
2022/04/03 09:39:24;;;;;;;2.97;1.33;;;;;;;6.42;63.19;102399.72;4993931;28;20026;-48
2022/04/03 09:42:00;;;;;;;4.28;1.55;;;;;;;6.41;60.28;102396.19;5010380;28;20041;-45
2022/04/03 09:44:37;;;;;;;3.85;1.55;;;;;;;6.52;60.82;102385.78;5007581;28;20277;-45
2022/04/03 09:47:15;;;;;;;3.53;1.30;;;;;;;6.89;60.16;102386.09;4992937;28;20033;-45
2022/04/03 09:49:43;;;;;;;3.40;1.25;;;;;;;7.18;59.24;102378.03;4995795;28;20032;-44
2022/04/03 09:52:09;;;;;;;4.70;1.27;;;;;;;7.32;58.39;102376.25;4995719;28;20087;-46
2022/04/03 09:54:38;;;;;;;3.00;1.30;;;;;;;7.43;58.32;102382.56;4995395;28;20236;-47
2022/04/03 09:57:18;;;;;;;3.55;1.23;;;;;;;7.50;57.91;102376.81;4996847;28;20029;-45
2022/04/03 09:59:53;;;;;;;1.60;1.30;;;;;;;7.33;56.46;102372.63;4994931;28;20091;-47
2022/04/03 10:02:19;;;;;;;1.85;1.10;;;;;;;7.22;57.00;102376.00;4995994;28;20104;-48
2022/04/03 10:04:46;;;;;;;5.75;1.30;;;;;;;7.34;55.40;102366.38;4995580;28;20038;-48
2022/04/03 10:07:13;;;;;;;5.15;1.10;;;;;;;7.47;56.00;102365.44;4996070;28;20108;-48
2022/04/03 10:09:49;;;;;;;2.15;1.10;;;;;;;7.63;56.07;102361.75;4995023;28;20069;-44
2022/04/03 10:12:19;;;;;;;3.38;1.13;;;;;;;8.03;56.21;102359.00;5008604;28;20345;-45
2022/04/03 10:14:46;;;;;;;2.88;1.30;;;;;;;7.88;52.65;102366.22;5008027;28;20079;-45
2022/04/03 10:17:13;;;;;;;2.15;1.30;;;;;;;7.54;54.77;102362.38;5013372;28;20481;-45
2022/04/03 10:19:39;;;;;;;3.70;1.40;;;;;;;7.29;55.71;102364.00;5016195;28;20458;-46
2022/04/03 10:22:10;;;;;;;2.42;1.42;;;;;;;7.27;55.72;102357.94;5014855;28;20025;-45
2022/04/03 10:24:37;;;;;;;2.20;1.42;;;;;;;7.72;56.88;102353.16;5014121;28;20164;-47
2022/04/03 10:27:20;;;;;;;5.32;1.58;;;;;;;8.25;53.56;102347.69;5013027;28;20387;-46
2022/04/03 10:29:48;;;;;;;1.95;1.33;;;;;;;8.31;54.60;102351.72;5005665;28;20475;-44
2022/04/03 10:32:27;;;;;;;3.05;1.58;;;;;;;8.17;53.32;102342.91;4998404;28;20163;-45
2022/04/03 10:34:55;;;;;;;4.63;1.50;;;;;;;7.80;54.22;102352.59;5009167;28;20672;-47
2022/04/03 10:37:25;;;;;;;5.72;1.40;;;;;;;7.64;54.57;102343.03;5005141;28;20066;-46
2022/04/03 10:39:54;;;;;;;7.60;1.75;;;;;;;7.44;54.59;102340.88;5008695;28;20025;-46
2022/04/03 10:42:25;;;;;;;2.00;1.08;;;;;;;7.45;55.69;102343.44;4998412;28;21201;-43
2022/04/03 10:45:12;;;;;;;2.78;1.25;;;;;;;7.67;55.24;102341.94;4998639;28;20420;-46
2022/04/03 10:47:38;;;;;;;1.92;1.27;;;;;;;8.14;55.34;102337.78;4999204;28;20079;-45
2022/04/03 10:50:05;;;;;;;4.38;1.33;;;;;;;8.34;51.55;102338.19;5015583;28;20494;-44
2022/04/03 10:52:42;;;;;;;1.35;1.05;;;;;;;8.34;51.97;102336.38;5018154;28;20037;-46
2022/04/03 10:55:22;;;;;;;2.22;1.10;;;;;;;8.42;52.82;102338.50;5008384;28;20033;-47
2022/04/03 10:57:52;;;;;;;5.43;1.10;;;;;;;8.60;51.07;102341.66;5009137;28;20033;-47
2022/04/03 11:00:17;;;;;;;3.85;1.23;;;;;;;8.50;49.93;102336.19;5000925;28;20037;-45
2022/04/03 11:02:50;;;;;;;5.72;1.38;;;;;;;8.24;52.11;102331.84;5016949;28;20021;-46
2022/04/03 11:05:36;;;;;;;1.70;1.02;;;;;;;8.02;53.14;102318.22;5002131;28;20436;-45
2022/04/03 11:08:02;;;;;;;1.83;1.00;;;;;;;7.87;52.14;102331.75;5012927;28;20037;-45
2022/04/03 11:10:59;;;;;;;4.93;1.08;;;;;;;7.67;53.00;102323.34;5017397;28;20491;-44
2022/04/03 11:13:30;;;;;;;5.30;1.05;;;;;;;7.68;53.04;102327.72;5012587;28;20002;-49
2022/04/03 11:16:06;;;;;;;4.55;1.33;;;;;;;7.72;54.36;102323.91;5009438;28;20026;-48
2022/04/03 11:18:41;;;;;;;5.95;1.40;;;;;;;7.88;54.97;102318.34;5014586;28;20328;-47